Terminal Aerodrome Forecast
Issued by NWS Sterling, VA

Current Version | Previous Version | Graphics & Text | Print | Product List | Glossary On
Versions: 1 2 3 4 5 6 7 8 9 10 11 12 13 14 15 16 17 18 19 20 21 22 23 24 25
000
FTUS41 KLWX 300520
TAFDCA
TAF
KDCA 300520Z 3006/0106 06005KT P6SM -DZ OVC008
     FM301200 06006KT P6SM OVC008
     FM301600 08005KT P6SM BKN015
     FM301800 11006KT P6SM BKN025
     FM302000 13006KT P6SM OVC035
     FM302200 13006KT P6SM OVC030
     FM010000 12007KT 5SM -RA BR OVC020
     FM010300 13008KT 3SM RA BR OVC010=

USA.gov is the U.S. government's official web portal to all federal, state and local government web resources and services.